createdAt,value
2017-08-07T00:01:01.589Z,13.70
2017-08-07T00:03:29.126Z,13.70
2017-08-07T00:05:56.670Z,13.70
2017-08-07T00:08:24.198Z,13.70
2017-08-07T00:10:52.546Z,13.90
2017-08-07T00:13:20.114Z,13.80
2017-08-07T00:15:47.769Z,13.80
2017-08-07T00:18:15.338Z,13.70
2017-08-07T00:20:42.973Z,13.70
2017-08-07T00:23:10.533Z,13.70
2017-08-07T00:25:38.069Z,13.60
2017-08-07T00:28:05.670Z,13.50
2017-08-07T00:30:33.219Z,13.60
2017-08-07T00:33:00.790Z,13.50
2017-08-07T00:35:28.342Z,13.40
2017-08-07T00:37:55.901Z,13.40
2017-08-07T00:40:23.470Z,13.40
2017-08-07T00:42:51.385Z,13.40
2017-08-07T00:45:19.722Z,13.40
2017-08-07T00:47:47.383Z,13.30
2017-08-07T00:50:14.951Z,13.40
2017-08-07T00:52:42.508Z,13.40
2017-08-07T00:55:10.065Z,13.30
2017-08-07T00:57:37.832Z,13.30
2017-08-07T01:00:05.394Z,13.20
2017-08-07T01:02:32.955Z,13.20
2017-08-07T01:05:00.510Z,13.10
2017-08-07T01:07:28.075Z,13.00
2017-08-07T01:09:55.725Z,13.00
2017-08-07T01:12:23.298Z,12.90
2017-08-07T01:14:50.956Z,12.90
2017-08-07T01:17:18.513Z,12.80
2017-08-07T01:19:46.278Z,12.70
2017-08-07T01:22:13.839Z,12.80
2017-08-07T01:24:41.517Z,12.80
2017-08-07T01:27:09.042Z,12.80
2017-08-07T01:29:36.569Z,12.70
2017-08-07T01:32:04.098Z,12.70
2017-08-07T01:34:31.666Z,12.70
2017-08-07T01:36:59.222Z,12.70
2017-08-07T01:39:26.771Z,12.70
2017-08-07T01:41:54.330Z,12.70
2017-08-07T01:44:21.873Z,12.70
2017-08-07T01:46:49.458Z,12.60
2017-08-07T01:49:17.021Z,12.60
2017-08-07T01:51:44.690Z,12.60
2017-08-07T01:54:12.242Z,12.60
2017-08-07T01:56:39.894Z,12.60
2017-08-07T01:59:07.471Z,12.50
2017-08-07T02:01:34.993Z,12.60
2017-08-07T02:04:02.581Z,12.50
2017-08-07T02:06:30.150Z,12.50
2017-08-07T02:08:57.702Z,12.40
2017-08-07T02:11:25.272Z,12.40
2017-08-07T02:13:52.931Z,12.40
2017-08-07T02:16:20.490Z,12.30
2017-08-07T02:18:48.046Z,12.30
2017-08-07T02:21:15.606Z,12.30
2017-08-07T02:23:43.173Z,12.20
2017-08-07T02:26:10.737Z,12.20
2017-08-07T02:28:38.262Z,12.20
2017-08-07T02:31:05.859Z,12.20
2017-08-07T02:33:33.395Z,12.10
2017-08-07T02:36:00.990Z,12.10
2017-08-07T02:38:28.536Z,12.10
2017-08-07T02:40:56.399Z,12.00
2017-08-07T02:43:23.940Z,12.10
2017-08-07T02:45:51.536Z,12.10
2017-08-07T02:48:19.115Z,12.00
2017-08-07T02:50:46.654Z,12.00
2017-08-07T02:53:14.216Z,11.90
2017-08-07T02:55:41.779Z,11.90
2017-08-07T02:58:09.338Z,11.90
2017-08-07T03:00:36.894Z,11.90
2017-08-07T03:03:04.767Z,11.80
2017-08-07T03:05:32.311Z,11.80
2017-08-07T03:07:59.885Z,11.80
2017-08-07T03:10:27.423Z,11.80
2017-08-07T03:12:54.954Z,11.80
2017-08-07T03:15:23.249Z,11.80
2017-08-07T03:17:50.838Z,11.70
2017-08-07T03:20:18.405Z,11.70
2017-08-07T03:22:45.966Z,11.70
2017-08-07T03:25:13.497Z,11.70
2017-08-07T03:27:41.093Z,11.80
2017-08-07T03:30:08.650Z,11.80
2017-08-07T03:32:36.178Z,11.90
2017-08-07T03:35:03.707Z,11.90
2017-08-07T03:37:32.038Z,11.90
2017-08-07T03:39:59.602Z,11.90
2017-08-07T03:42:27.130Z,12.00
2017-08-07T03:44:54.657Z,12.00
2017-08-07T03:47:22.197Z,12.10
2017-08-07T03:49:49.751Z,12.10
2017-08-07T03:52:17.283Z,12.10
2017-08-07T03:54:44.863Z,12.10
2017-08-07T03:57:12.399Z,12.10
2017-08-07T03:59:40.018Z,12.10
2017-08-07T04:02:07.561Z,12.10
2017-08-07T04:04:35.120Z,12.00
2017-08-07T04:07:02.769Z,12.00
2017-08-07T04:09:30.338Z,12.00
2017-08-07T04:11:57.992Z,11.90
2017-08-07T04:14:25.571Z,11.90
2017-08-07T04:16:53.224Z,12.00
2017-08-07T04:19:20.796Z,12.00
2017-08-07T04:21:48.350Z,12.10
2017-08-07T04:24:15.874Z,12.10
2017-08-07T04:26:43.462Z,12.20
2017-08-07T04:29:10.993Z,12.30
2017-08-07T04:31:38.522Z,12.30
2017-08-07T04:34:06.049Z,12.30
2017-08-07T04:36:33.610Z,12.30
2017-08-07T04:39:01.167Z,12.40
2017-08-07T04:41:28.724Z,12.40
2017-08-07T04:43:56.299Z,12.50
2017-08-07T04:46:23.845Z,12.40
2017-08-07T04:48:51.404Z,12.50
2017-08-07T04:51:18.941Z,12.50
2017-08-07T04:53:46.533Z,12.50
2017-08-07T04:56:14.081Z,12.60
2017-08-07T04:58:41.757Z,12.70
2017-08-07T05:01:09.290Z,12.70
2017-08-07T05:03:36.888Z,12.70
2017-08-07T05:06:04.420Z,12.80
2017-08-07T05:08:32.018Z,12.90
2017-08-07T05:10:59.549Z,13.00
2017-08-07T05:13:27.087Z,13.10
2017-08-07T05:15:54.690Z,13.10
2017-08-07T05:18:22.223Z,13.30
2017-08-07T05:20:49.756Z,13.50
2017-08-07T05:23:18.818Z,16.10
2017-08-07T05:25:46.463Z,16.10
2017-08-07T05:28:13.994Z,17.40
2017-08-07T05:30:41.586Z,18.00
2017-08-07T05:33:09.139Z,18.30
2017-08-07T05:35:36.726Z,19.00
2017-08-07T05:38:04.363Z,18.90
2017-08-07T05:40:31.930Z,18.40
2017-08-07T05:42:59.489Z,18.70
2017-08-07T05:45:27.052Z,18.70
2017-08-07T05:47:55.270Z,17.40
2017-08-07T05:50:23.697Z,16.20
2017-08-07T05:52:51.361Z,16.20
2017-08-07T05:55:18.926Z,16.60
2017-08-07T05:57:46.453Z,17.60
2017-08-07T06:00:13.995Z,17.10
2017-08-07T06:02:42.322Z,16.10
2017-08-07T06:05:09.894Z,16.10
2017-08-07T06:07:37.459Z,15.80
2017-08-07T06:10:05.001Z,16.00
2017-08-07T06:12:32.568Z,16.10
2017-08-07T06:15:00.127Z,15.90
2017-08-07T06:17:27.787Z,15.80
2017-08-07T06:19:55.322Z,17.60
2017-08-07T06:22:22.908Z,18.30
2017-08-07T06:24:50.451Z,18.20
2017-08-07T06:27:18.041Z,18.80
2017-08-07T06:29:45.566Z,19.90
2017-08-07T06:32:13.154Z,20.70
2017-08-07T06:34:40.686Z,20.80
2017-08-07T06:37:08.286Z,21.30
2017-08-07T06:39:35.851Z,19.90
2017-08-07T06:42:03.418Z,20.10
2017-08-07T06:44:30.978Z,21.30
2017-08-07T06:46:58.538Z,22.30
2017-08-07T06:49:26.187Z,22.30
2017-08-07T06:51:53.961Z,21.50
2017-08-07T06:54:21.526Z,22.30
2017-08-07T06:56:49.082Z,22.00
2017-08-07T06:59:16.747Z,22.50
2017-08-07T07:01:44.274Z,20.30
2017-08-07T07:04:11.841Z,18.60
2017-08-07T07:06:39.376Z,17.70
2017-08-07T07:09:07.705Z,17.30
2017-08-07T07:11:35.258Z,17.30
2017-08-07T07:14:02.805Z,17.10
2017-08-07T07:16:30.379Z,19.00
2017-08-07T07:18:57.911Z,21.70
2017-08-07T07:21:25.494Z,23.60
2017-08-07T07:23:53.073Z,23.90
2017-08-07T07:26:20.723Z,24.30
2017-08-07T07:28:48.281Z,24.10
2017-08-07T07:31:15.851Z,23.70
2017-08-07T07:33:43.390Z,24.80
2017-08-07T07:36:11.070Z,25.00
2017-08-07T07:38:38.626Z,25.00
2017-08-07T07:41:06.187Z,24.90
2017-08-07T07:43:33.753Z,24.80
2017-08-07T07:46:01.287Z,24.80
2017-08-07T07:48:28.847Z,25.20
2017-08-07T07:50:56.440Z,25.50
2017-08-07T07:53:23.989Z,24.10
2017-08-07T07:55:51.550Z,24.00
2017-08-07T07:58:19.111Z,24.60
2017-08-07T08:00:46.646Z,24.80
2017-08-07T08:03:14.250Z,24.20
2017-08-07T08:05:41.779Z,24.20
2017-08-07T08:08:09.335Z,23.60
2017-08-07T08:10:36.858Z,24.40
2017-08-07T08:13:04.387Z,24.70
2017-08-07T08:15:31.942Z,25.20
2017-08-07T08:17:59.498Z,24.80
2017-08-07T08:20:27.167Z,25.20
2017-08-07T08:22:54.733Z,24.70
2017-08-07T08:25:22.399Z,24.60
2017-08-07T08:27:49.939Z,24.80
2017-08-07T08:30:17.514Z,24.50
2017-08-07T08:32:45.078Z,24.30
2017-08-07T08:35:12.734Z,24.40
2017-08-07T08:37:40.306Z,24.50
2017-08-07T08:40:07.858Z,24.30
2017-08-07T08:42:35.390Z,24.90
2017-08-07T08:45:02.963Z,24.50
2017-08-07T08:47:30.493Z,24.20
2017-08-07T08:49:58.794Z,23.80
2017-08-07T08:52:26.327Z,23.80
2017-08-07T08:54:54.653Z,24.60
2017-08-07T08:57:22.210Z,24.60
2017-08-07T08:59:49.786Z,24.20
2017-08-07T09:02:17.316Z,24.00
2017-08-07T09:04:44.855Z,24.50
2017-08-07T09:07:12.386Z,24.60
2017-08-07T09:09:39.919Z,24.60
2017-08-07T09:12:07.473Z,24.90
2017-08-07T09:14:35.012Z,24.70
2017-08-07T09:17:02.613Z,25.20
2017-08-07T09:19:30.171Z,24.50
2017-08-07T09:21:57.708Z,25.00
2017-08-07T09:24:25.274Z,24.90
2017-08-07T09:26:52.838Z,25.20
2017-08-07T09:29:20.382Z,25.80
2017-08-07T09:31:47.963Z,26.40
2017-08-07T09:34:15.502Z,25.40
2017-08-07T09:36:43.086Z,25.00
2017-08-07T09:39:10.646Z,25.40
2017-08-07T09:41:38.214Z,25.30
2017-08-07T09:44:05.777Z,25.70
2017-08-07T09:46:33.328Z,25.40
2017-08-07T09:49:00.890Z,25.80
2017-08-07T09:51:28.450Z,26.70
2017-08-07T09:53:56.105Z,27.20
2017-08-07T09:56:23.677Z,27.40
2017-08-07T09:58:51.238Z,26.70
2017-08-07T10:01:18.772Z,26.40
2017-08-07T10:03:46.302Z,26.40
2017-08-07T10:06:14.631Z,24.50
2017-08-07T10:08:42.161Z,24.50
2017-08-07T10:11:09.720Z,25.40
2017-08-07T10:13:37.255Z,25.90
2017-08-07T10:16:04.797Z,25.50
2017-08-07T10:18:32.387Z,25.00
2017-08-07T10:21:00.690Z,24.50
2017-08-07T10:23:28.243Z,24.40
2017-08-07T10:25:55.842Z,24.70
2017-08-07T10:28:23.409Z,25.50
2017-08-07T10:30:50.938Z,26.40
2017-08-07T10:33:18.522Z,26.50
2017-08-07T10:35:46.086Z,26.30
2017-08-07T10:38:13.645Z,26.40
2017-08-07T10:40:41.196Z,26.60
2017-08-07T10:43:08.858Z,26.10
2017-08-07T10:45:36.419Z,26.10
2017-08-07T10:48:03.949Z,25.80
2017-08-07T10:50:32.269Z,26.50
2017-08-07T10:52:59.794Z,26.50
2017-08-07T10:55:27.334Z,26.40
2017-08-07T10:57:55.639Z,26.10
2017-08-07T11:00:23.235Z,26.10
2017-08-07T11:02:50.785Z,26.40
2017-08-07T11:05:18.357Z,25.80
2017-08-07T11:07:45.990Z,26.20
2017-08-07T11:10:13.570Z,26.40
2017-08-07T11:12:41.223Z,26.30
2017-08-07T11:15:09.056Z,26.70
2017-08-07T11:17:37.498Z,27.00
2017-08-07T11:20:05.138Z,27.00
2017-08-07T11:22:32.700Z,25.20
2017-08-07T11:25:00.268Z,25.50
2017-08-07T11:27:27.827Z,25.20
2017-08-07T11:29:55.382Z,25.50
2017-08-07T11:32:23.043Z,26.00
2017-08-07T11:34:50.605Z,27.00
2017-08-07T11:37:18.158Z,26.20
2017-08-07T11:39:45.685Z,26.80
2017-08-07T11:42:13.982Z,26.30
2017-08-07T11:44:41.570Z,26.30
2017-08-07T11:47:09.133Z,25.20
2017-08-07T11:49:36.669Z,25.20
2017-08-07T11:52:04.251Z,25.30
2017-08-07T11:54:31.787Z,25.80
2017-08-07T11:56:59.369Z,25.70
2017-08-07T11:59:26.891Z,25.70
2017-08-07T12:01:55.206Z,26.10
2017-08-07T12:04:22.766Z,26.10
2017-08-07T12:06:50.332Z,26.10
2017-08-07T12:09:17.899Z,26.00
2017-08-07T12:11:45.424Z,25.90
2017-08-07T12:14:12.973Z,25.90
2017-08-07T12:16:41.276Z,25.60
2017-08-07T12:19:08.864Z,25.60
2017-08-07T12:21:36.421Z,25.60
2017-08-07T12:24:03.982Z,25.40
2017-08-07T12:29:32.382Z,25.20
2017-08-07T12:31:59.934Z,25.50
2017-08-07T12:34:27.500Z,25.40
2017-08-07T12:36:55.034Z,25.20
2017-08-07T12:39:22.625Z,25.10
2017-08-07T12:41:50.191Z,25.20
2017-08-07T12:44:17.723Z,25.00
2017-08-07T12:46:45.310Z,25.60
2017-08-07T12:49:12.863Z,25.40
2017-08-07T12:51:40.531Z,25.60
2017-08-07T12:54:08.079Z,25.70
2017-08-07T12:56:35.628Z,25.60
2017-08-07T12:59:03.211Z,25.80
2017-08-07T13:01:30.762Z,25.90
2017-08-07T13:03:58.348Z,26.10
2017-08-07T13:06:25.901Z,26.30
2017-08-07T13:08:53.446Z,26.10
2017-08-07T13:11:21.014Z,25.40
2017-08-07T13:13:48.573Z,25.10
2017-08-07T13:16:16.126Z,25.40
2017-08-07T13:18:43.658Z,25.30
2017-08-07T13:21:11.960Z,24.10
2017-08-07T13:23:39.525Z,24.00
2017-08-07T13:26:07.095Z,23.60
2017-08-07T13:28:34.763Z,23.50
2017-08-07T13:31:02.315Z,23.60
2017-08-07T13:33:29.949Z,23.80
2017-08-07T13:35:57.553Z,24.10
2017-08-07T13:38:25.114Z,24.40
2017-08-07T13:40:52.642Z,24.60
2017-08-07T13:43:20.229Z,25.00
2017-08-07T13:45:47.794Z,24.60
2017-08-07T13:48:15.446Z,24.30
2017-08-07T13:50:43.014Z,23.90
2017-08-07T13:53:10.574Z,23.80
2017-08-07T13:55:38.102Z,23.70
2017-08-07T13:58:05.685Z,24.30
2017-08-07T14:00:33.249Z,24.80
2017-08-07T14:03:00.812Z,24.90
2017-08-07T14:05:28.380Z,25.00
2017-08-07T14:07:55.947Z,24.90
2017-08-07T14:10:23.486Z,25.20
2017-08-07T14:12:51.050Z,25.30
2017-08-07T14:15:18.709Z,25.30
2017-08-07T14:17:46.286Z,25.00
2017-08-07T14:20:13.835Z,24.60
2017-08-07T14:22:41.406Z,24.90
2017-08-07T14:25:09.058Z,25.20
2017-08-07T14:27:36.621Z,25.20
2017-08-07T14:30:04.151Z,25.50
2017-08-07T14:32:31.702Z,25.50
2017-08-07T14:35:00.022Z,25.70
2017-08-07T14:37:27.554Z,25.70
2017-08-07T14:39:55.946Z,26.10
2017-08-07T14:42:23.480Z,25.80
2017-08-07T14:44:51.771Z,25.60
2017-08-07T14:47:19.361Z,25.60
2017-08-07T14:49:46.922Z,25.50
2017-08-07T14:52:14.454Z,25.40
2017-08-07T14:54:42.051Z,25.20
2017-08-07T14:57:09.587Z,25.30
2017-08-07T14:59:37.162Z,25.60
2017-08-07T15:02:04.711Z,25.70
2017-08-07T15:04:32.242Z,25.40
2017-08-07T15:07:00.566Z,25.60
2017-08-07T15:09:28.234Z,25.60
2017-08-07T15:11:55.786Z,25.50
2017-08-07T15:14:23.325Z,25.40
2017-08-07T15:16:50.918Z,25.20
2017-08-07T15:19:18.497Z,25.30
2017-08-07T15:21:46.133Z,25.20
2017-08-07T15:24:13.662Z,25.00
2017-08-07T15:26:41.194Z,24.80
2017-08-07T15:29:08.738Z,24.40
2017-08-07T15:31:36.272Z,24.10
2017-08-07T15:34:03.848Z,24.00
2017-08-07T15:36:31.369Z,24.20
2017-08-07T15:38:58.895Z,24.50
2017-08-07T15:41:26.522Z,24.60
2017-08-07T15:43:54.085Z,24.80
2017-08-07T15:46:21.609Z,24.90
2017-08-07T15:48:49.138Z,25.10
2017-08-07T15:51:16.758Z,25.10
2017-08-07T15:53:44.322Z,25.20
2017-08-07T15:56:11.878Z,25.00
2017-08-07T15:58:39.437Z,24.90
2017-08-07T16:01:07.006Z,24.70
2017-08-07T16:03:34.544Z,24.70
2017-08-07T16:06:02.076Z,24.70
2017-08-07T16:08:30.402Z,24.50
2017-08-07T16:10:57.966Z,24.50
2017-08-07T16:13:25.497Z,24.70
2017-08-07T16:15:53.018Z,24.70
2017-08-07T16:18:20.648Z,24.90
2017-08-07T16:20:48.306Z,25.20
2017-08-07T16:23:15.866Z,25.30
2017-08-07T16:25:43.430Z,25.00
2017-08-07T16:28:11.002Z,24.70
2017-08-07T16:30:38.527Z,24.50
2017-08-07T16:33:06.063Z,24.60
2017-08-07T16:35:34.358Z,24.40
2017-08-07T16:38:01.895Z,24.40
2017-08-07T16:40:30.208Z,24.20
2017-08-07T16:42:57.748Z,24.20
2017-08-07T16:45:26.042Z,24.10
2017-08-07T16:47:53.597Z,24.10
2017-08-07T16:50:21.127Z,24.10
2017-08-07T16:52:48.742Z,24.00
2017-08-07T16:55:16.315Z,23.80
2017-08-07T16:57:43.965Z,23.80
2017-08-07T17:00:11.547Z,23.90
2017-08-07T17:02:39.200Z,23.70
2017-08-07T17:05:06.762Z,23.90
2017-08-07T17:07:34.313Z,24.00
2017-08-07T17:10:01.842Z,23.80
2017-08-07T17:12:30.134Z,23.70
2017-08-07T17:14:57.714Z,23.70
2017-08-07T17:17:25.274Z,23.70
2017-08-07T17:19:52.847Z,23.60
2017-08-07T17:22:20.376Z,23.60
2017-08-07T17:24:47.935Z,23.60
2017-08-07T17:27:15.523Z,23.60
2017-08-07T17:29:43.074Z,23.60
2017-08-07T17:32:10.608Z,23.50
2017-08-07T17:34:38.162Z,23.50
2017-08-07T17:37:06.686Z,23.20
2017-08-07T17:39:34.259Z,23.20
2017-08-07T17:42:01.802Z,22.90
2017-08-07T17:44:29.423Z,22.60
2017-08-07T17:46:57.719Z,22.30
2017-08-07T17:49:25.267Z,22.30
2017-08-07T17:51:52.815Z,22.20
2017-08-07T17:54:21.134Z,22.00
2017-08-07T17:56:48.661Z,22.00
2017-08-07T17:59:16.955Z,21.60
2017-08-07T18:01:44.553Z,21.60
2017-08-07T18:04:12.084Z,21.40
2017-08-07T18:06:39.646Z,21.40
2017-08-07T18:09:07.176Z,21.20
2017-08-07T18:11:35.500Z,21.00
2017-08-07T18:14:03.061Z,21.00
2017-08-07T18:16:30.634Z,21.00
2017-08-07T18:18:58.169Z,20.90
2017-08-07T18:21:25.706Z,20.70
2017-08-07T18:23:54.012Z,20.50
2017-08-07T18:26:21.583Z,20.50
2017-08-07T18:28:49.150Z,20.40
2017-08-07T18:31:16.682Z,20.30
2017-08-07T18:33:44.274Z,20.20
2017-08-07T18:36:11.822Z,20.20
2017-08-07T18:38:39.405Z,20.00
2017-08-07T18:41:06.946Z,19.90
2017-08-07T18:43:34.522Z,19.80
2017-08-07T18:46:02.051Z,19.80
2017-08-07T18:48:29.630Z,19.60
2017-08-07T18:50:57.164Z,19.50
2017-08-07T18:53:24.734Z,19.50
2017-08-07T18:55:52.738Z,19.40
2017-08-07T18:58:20.335Z,19.30
2017-08-07T19:00:48.645Z,19.20
2017-08-07T19:03:16.221Z,19.20
2017-08-07T19:05:43.790Z,19.10
2017-08-07T19:08:11.322Z,19.10
2017-08-07T19:10:38.874Z,18.90
2017-08-07T19:13:06.413Z,18.90
2017-08-07T19:15:33.999Z,18.80
2017-08-07T19:18:01.601Z,18.70
2017-08-07T19:20:29.262Z,18.60
2017-08-07T19:22:56.842Z,18.60
2017-08-07T19:25:24.442Z,18.60
2017-08-07T19:27:52.725Z,18.40
2017-08-07T19:30:20.327Z,18.40
2017-08-07T19:32:47.886Z,18.50
2017-08-07T19:35:15.410Z,18.40
2017-08-07T19:37:43.002Z,18.30
2017-08-07T19:40:10.534Z,18.30
2017-08-07T19:42:38.061Z,18.30
2017-08-07T19:45:05.592Z,18.30
2017-08-07T19:47:33.146Z,18.20
2017-08-07T19:50:00.703Z,18.10
2017-08-07T19:52:28.266Z,18.10
2017-08-07T19:54:55.825Z,18.10
2017-08-07T19:57:23.482Z,18.00
2017-08-07T19:59:51.006Z,17.90
2017-08-07T20:02:19.330Z,17.80
2017-08-07T20:04:46.886Z,17.80
2017-08-07T20:07:14.444Z,17.80
2017-08-07T20:09:41.974Z,17.70
2017-08-07T20:12:09.534Z,17.70
2017-08-07T20:14:37.226Z,17.70
2017-08-07T20:17:04.796Z,17.70
2017-08-07T20:19:32.352Z,17.60
2017-08-07T20:21:59.917Z,17.70
2017-08-07T20:24:27.574Z,17.60
2017-08-07T20:26:55.094Z,17.60
2017-08-07T20:29:23.418Z,17.50
2017-08-07T20:31:50.979Z,17.50
2017-08-07T20:34:19.454Z,17.50
2017-08-07T20:36:46.982Z,17.40
2017-08-07T20:39:15.389Z,17.40
2017-08-07T20:41:42.916Z,17.40
2017-08-07T20:44:11.219Z,17.40
2017-08-07T20:46:38.770Z,17.30
2017-08-07T20:49:06.375Z,17.30
2017-08-07T20:51:33.906Z,17.30
2017-08-07T20:54:01.445Z,17.30
2017-08-07T20:56:29.748Z,17.30
2017-08-07T20:58:57.291Z,17.20
2017-08-07T21:01:24.882Z,17.20
2017-08-07T21:03:52.442Z,17.20
2017-08-07T21:06:19.984Z,17.10
2017-08-07T21:08:47.519Z,17.10
2017-08-07T21:11:15.837Z,17.00
2017-08-07T21:13:43.370Z,17.00
2017-08-07T21:16:10.905Z,17.00
2017-08-07T21:18:38.532Z,17.00
2017-08-07T21:21:06.110Z,17.00
2017-08-07T21:23:33.647Z,17.00
2017-08-07T21:26:01.179Z,16.90
2017-08-07T21:28:28.708Z,16.80
2017-08-07T21:30:56.330Z,16.80
2017-08-07T21:33:23.894Z,16.80
2017-08-07T21:35:51.418Z,16.70
2017-08-07T21:38:18.951Z,16.70
2017-08-07T21:40:46.574Z,16.70
2017-08-07T21:43:14.343Z,16.60
2017-08-07T21:45:41.871Z,16.50
2017-08-07T21:48:09.402Z,16.50
2017-08-07T21:50:37.027Z,16.50
2017-08-07T21:53:04.580Z,16.40
2017-08-07T21:55:32.142Z,16.30
2017-08-07T21:57:59.807Z,16.40
2017-08-07T22:00:27.362Z,16.40
2017-08-07T22:02:54.889Z,16.40
2017-08-07T22:05:23.206Z,16.30
2017-08-07T22:07:50.762Z,16.30
2017-08-07T22:10:18.326Z,16.40
2017-08-07T22:12:45.866Z,16.30
2017-08-07T22:15:13.459Z,16.30
2017-08-07T22:17:40.994Z,16.40
2017-08-07T22:20:08.551Z,16.40
2017-08-07T22:22:36.091Z,16.40
2017-08-07T22:25:04.500Z,16.30
2017-08-07T22:27:32.066Z,16.30
2017-08-07T22:29:59.622Z,16.30
2017-08-07T22:32:27.157Z,16.20
2017-08-07T22:34:54.746Z,16.20
2017-08-07T22:37:22.311Z,16.20
2017-08-07T22:39:49.846Z,16.10
2017-08-07T22:42:17.379Z,16.10
2017-08-07T22:44:45.710Z,16.10
2017-08-07T22:47:13.242Z,16.10
2017-08-07T22:49:40.778Z,16.10
2017-08-07T22:52:09.090Z,16.20
2017-08-07T22:54:36.679Z,16.20
2017-08-07T22:57:04.330Z,16.20
2017-08-07T22:59:31.865Z,16.20
2017-08-07T23:01:59.398Z,16.10
2017-08-07T23:04:27.735Z,16.00
2017-08-07T23:06:55.263Z,16.00
2017-08-07T23:09:22.794Z,16.10
2017-08-07T23:11:50.409Z,16.20
2017-08-07T23:14:17.974Z,16.10
2017-08-07T23:16:45.501Z,16.10
2017-08-07T23:19:13.043Z,16.10
2017-08-07T23:21:41.373Z,15.90
2017-08-07T23:24:08.929Z,15.90
2017-08-07T23:26:36.454Z,16.00
2017-08-07T23:29:04.786Z,15.90
2017-08-07T23:31:32.309Z,15.90
2017-08-07T23:33:59.846Z,15.90
2017-08-07T23:36:28.173Z,15.80
2017-08-07T23:38:55.748Z,15.80
2017-08-07T23:41:23.311Z,15.80
2017-08-07T23:43:50.838Z,15.80
2017-08-07T23:46:18.426Z,15.70
2017-08-07T23:48:45.954Z,15.70
2017-08-07T23:51:13.479Z,15.90
2017-08-07T23:53:41.017Z,15.90
2017-08-07T23:56:08.571Z,15.90
2017-08-07T23:58:36.108Z,15.80
